Latest Coastal Weather Observations for Warruwi

IDD60701

Issued at 8:21 pm CST Tuesday 22 August 2017 (issued every 10 minutes, with the page automatically refreshed every 10 minutes)

About coastal observations | Map of coastal stations | Coastal observations for NT | Marine services | Other Formats
Station Details ID: 014401 Name: WARRUWI AIRPORT Lat: -11.65 Lon: 133.38 Height: 19.2 m
Data from the previous 72 hours. | See also: Recent months at Warruwi
Date/Time
CST
Temp
°C
Wind Pressure Rain since
9am
mm
Weather Cloud Vis
km
Sea
Height
m
Swell
Dir  Spd
kts
Gust
kts
hPa Trend Height
m
Period
s
Dir
22/08:00pm 25.7 ENE 4 6 1013.6 - 0.0 - - - - - - -
22/07:30pm 25.7 ENE 4 7 1013.3 - 0.0 - - - - - - -
22/07:00pm 25.9 ENE 4 8 1013.0 - 0.0 - - - - - - -
22/06:30pm 26.2 ENE 5 8 1012.8 - 0.0 - - - - - - -
22/06:00pm 26.9 ENE 6 10 1012.6 - 0.0 - - - - - - -
22/05:30pm 27.2 ENE 7 12 1012.5 - 0.0 - - - - - - -
22/05:00pm 27.6 ENE 9 15 1012.5 - 0.0 - - - - - - -
22/04:30pm 28.0 E 9 14 1012.5 - 0.0 - - - - - - -
22/04:00pm 28.5 E 9 13 1012.7 - 0.0 - - - - - - -
22/03:30pm 28.4 E 10 17 1012.9 - 0.0 - - - - - - -
22/03:00pm 28.7 E 12 17 1012.9 - 0.0 - - - - - - -
22/02:30pm 29.2 E 12 17 1013.2 - 0.0 - - - - - - -
22/02:00pm 29.1 E 12 18 1013.6 - 0.0 - - - - - - -
22/01:30pm 28.8 E 13 17 1013.8 - 0.0 - - - - - - -
22/01:00pm 28.9 E 11 17 1014.2 - 0.0 - - - - - - -
22/12:30pm 29.0 E 13 19 1014.5 - 0.0 - - - - - - -
22/12:00pm 29.2 E 12 19 1014.9 - 0.0 - - - - - - -
22/11:30am 29.0 E 12 18 1015.2 - 0.0 - - - - - - -
22/11:00am 28.6 E 12 18 1015.4 - 0.0 - - - - - - -
22/10:30am 28.7 E 10 15 1015.5 - 0.0 - - - - - - -
22/10:00am 27.4 E 8 11 1015.4 - 0.0 - - - - - - -
22/09:30am 26.6 E 7 10 1015.3 - 0.0 - - - - - - -
22/09:00am 26.2 ESE 7 10 1015.2 - 0.0 - - - - - - -
22/08:30am 25.4 SE 7 9 1014.9 - 0.0 - - - - - - -
22/08:00am 24.9 SE 6 9 1014.8 - 0.0 - - - - - - -
22/07:30am 24.2 SE 4 6 1014.4 - 0.0 - - - - - - -
22/07:00am 23.6 SE 6 11 1014.3 - 0.0 - - - - - - -
22/06:30am 23.7 SE 7 10 1014.0 - 0.0 - - - - - - -
22/06:00am 24.0 ESE 8 11 1013.7 - 0.0 - - - - - - -
22/05:30am 24.1 SE 8 11 1013.4 - 0.0 - - - - - - -
22/05:00am 24.5 ESE 10 13 1013.2 - 0.0 - - - - - - -
22/04:30am 24.8 ESE 10 14 1013.0 - 0.0 - - - - - - -
22/04:00am 25.1 ESE 10 15 1012.8 - 0.0 - - - - - - -
22/03:30am 25.8 E 10 16 1012.7 - 0.0 - - - - - - -
22/03:00am 25.9 E 10 16 1012.9 - 0.0 - - - - - - -
22/02:30am 25.7 ENE 8 13 1013.0 - 0.0 - - - - - - -
22/02:00am 26.0 ENE 9 16 1013.3 - 0.0 - - - - - - -
22/01:30am 25.9 E 8 13 1013.4 - 0.0 - - - - - - -
22/01:00am 25.6 ENE 5 8 1013.5 - 0.0 - - - - - - -
22/12:30am 25.5 ENE 5 11 1013.6 - 0.0 - - - - - - -
22/12:00am 25.5 ENE 5 9 1013.7 - 0.0 - - - - - - -
 
Date/Time
CST
Temp
°C
Wind Pressure Rain since
9am
mm
Weather Cloud Vis
km
Sea
Height
m
Swell
Dir  Spd
kts
Gust
kts
hPa Trend Height
m
Period
s
Dir
21/11:30pm 25.4 ENE 4 6 1013.7 - 0.0 - - - - - - -
21/11:00pm 25.6 ENE 4 7 1013.8 - 0.0 - - - - - - -
21/10:30pm 25.5 ENE 4 7 1013.9 - 0.0 - - - - - - -
21/10:00pm 25.4 ENE 3 5 1013.8 - 0.0 - - - - - - -
21/09:30pm 25.6 ENE 4 7 1013.7 - 0.0 - - - - - - -
21/09:00pm 25.5 ENE 4 7 1013.5 - 0.0 - - - - - - -
21/08:30pm 25.6 ENE 4 7 1013.3 - 0.0 - - - - - - -
21/08:00pm 25.7 ENE 5 8 1012.9 - 0.0 - - - - - - -
21/07:30pm 25.9 ENE 6 10 1012.6 - 0.0 - - - - - - -
21/07:00pm 26.0 ENE 5 10 1012.3 - 0.0 - - - - - - -
21/06:30pm 26.3 E 6 11 1011.8 - 0.0 - - - - - - -
21/06:00pm 26.9 E 6 10 1011.6 - 0.0 - - - - - - -
21/05:30pm 27.9 E 6 10 1011.5 - 0.0 - - - - - - -
21/05:00pm 28.0 E 6 12 1011.5 - 0.0 - - - - - - -
21/04:30pm 28.1 E 7 11 1011.6 - 0.0 - - - - - - -
21/04:00pm 28.3 E 8 12 1011.7 - 0.0 - - - - - - -
21/03:30pm 28.7 E 8 13 1011.8 - 0.0 - - - - - - -
21/03:00pm 28.5 ENE 8 11 1011.9 - 0.0 - - - - - - -
21/02:30pm 28.7 E 8 13 1012.1 - 0.0 - - - - - - -
21/02:00pm 29.0 E 8 13 1012.5 - 0.0 - - - - - - -
21/01:30pm 28.7 E 9 12 1012.9 - 0.0 - - - - - - -
21/01:00pm 28.6 E 9 13 1013.2 - 0.0 - - - - - - -
21/12:30pm 28.2 E 10 14 1013.6 - 0.0 - - - - - - -
21/12:00pm 28.1 E 10 14 1013.8 - 0.0 - - - - - - -
21/11:30am 28.0 ESE 11 15 1014.2 - 0.0 - - - - - - -
21/11:00am 27.4 E 9 13 1014.5 - 0.0 - - - - - - -
21/10:30am 27.2 ESE 8 12 1014.6 - 0.0 - - - - - - -
21/10:00am 26.4 E 8 12 1014.7 - 0.0 - - - - - - -
21/09:30am 26.2 ESE 8 11 1014.5 - 0.0 - - - - - - -
21/09:00am 25.8 ESE 8 11 1014.2 - 0.0 - - - - - - -
21/08:30am 25.4 ESE 6 9 1014.0 - 0.0 - - - - - - -
21/08:00am 24.6 ESE 6 8 1013.8 - 0.0 - - - - - - -
21/07:30am 23.6 ESE 5 8 1013.6 - 0.0 - - - - - - -
21/07:00am 22.8 SE 4 6 1013.3 - 0.0 - - - - - - -
21/06:30am 22.9 SE 5 7 1013.0 - 0.0 - - - - - - -
21/06:00am 22.9 SE 4 5 1012.7 - 0.0 - - - - - - -
21/05:30am 23.0 ESE 3 4 1012.5 - 0.0 - - - - - - -
21/05:00am 23.1 SE 4 6 1012.4 - 0.0 - - - - - - -
21/04:30am 23.4 SE 5 6 1012.3 - 0.0 - - - - - - -
21/04:00am 23.7 SE 5 7 1012.3 - 0.0 - - - - - - -
21/03:30am 24.2 ESE 7 10 1012.3 - 0.0 - - - - - - -
21/03:00am 24.4 ESE 7 10 1012.4 - 0.0 - - - - - - -
21/02:30am 24.8 ESE 7 11 1012.5 - 0.0 - - - - - - -
21/02:00am 25.7 ESE 9 13 1012.7 - 0.0 - - - - - - -
21/01:30am 26.1 E 9 13 1012.7 - 0.0 - - - - - - -
21/01:00am 26.0 E 10 14 1013.0 - 0.0 - - - - - - -
21/12:30am 26.1 E 10 15 1013.3 - 0.0 - - - - - - -
21/12:00am 26.1 E 10 13 1013.2 - 0.0 - - - - - - -
 
Date/Time
CST
Temp
°C
Wind Pressure Rain since
9am
mm
Weather Cloud Vis
km
Sea
Height
m
Swell
Dir  Spd
kts
Gust
kts
hPa Trend Height
m
Period
s
Dir
20/11:30pm 26.1 E 9 14 1013.3 - 0.0 - - - - - - -
20/11:00pm 26.0 E 7 13 1013.2 - 0.0 - - - - - - -
20/10:30pm 25.9 ENE 7 12 1013.1 - 0.0 - - - - - - -
20/10:00pm 26.0 E 7 11 1013.0 - 0.0 - - - - - - -
20/09:30pm 26.1 E 7 10 1013.0 - 0.0 - - - - - - -
20/09:00pm 26.1 ENE 7 11 1012.6 - 0.0 - - - - - - -
20/08:30pm 26.0 ENE 6 9 1012.3 - 0.0 - - - - - - -
20/08:00pm 26.1 ENE 6 10 1011.9 - 0.0 - - - - - - -
20/07:30pm 26.1 ENE 4 7 1011.5 - 0.0 - - - - - - -
20/07:00pm 26.4 ENE 5 8 1011.3 - 0.0 - - - - - - -
20/06:30pm 26.9 ENE 4 7 1011.0 - 0.0 - - - - - - -
20/06:00pm 27.8 NE 5 9 1010.7 - 0.0 - - - - - - -
20/05:30pm 28.1 NE 5 9 1010.8 - 0.0 - - - - - - -
20/05:00pm 28.9 NE 6 12 1010.7 - 0.0 - - - - - - -
20/04:30pm 28.9 ENE 8 14 1010.6 - 0.0 - - - - - - -
20/04:00pm 29.2 ENE 9 15 1010.8 - 0.0 - - - - - - -
20/03:30pm 29.7 E 9 15 1011.0 - 0.0 - - - - - - -
20/03:00pm 29.6 ENE 9 15 1011.2 - 0.0 - - - - - - -
20/02:30pm 29.3 ENE 8 13 1011.9 - 0.0 - - - - - - -
20/02:00pm 28.6 ENE 9 15 1012.2 - 0.0 - - - - - - -
20/01:30pm 28.4 E 10 14 1012.6 - 0.0 - - - - - - -
20/01:00pm 28.1 E 11 16 1013.1 - 0.0 - - - - - - -
20/12:30pm 29.0 E 10 15 1013.7 - 0.0 - - - - - - -
20/12:00pm 27.5 E 9 14 1014.1 - 0.0 - - - - - - -
20/11:30am 27.8 E 8 11 1014.5 - 0.0 - - - - - - -
20/11:00am 27.9 ESE 10 13 1015.0 - 0.0 - - - - - - -
20/10:30am 27.0 E 10 14 1015.2 - 0.0 - - - - - - -
20/10:00am 26.4 ESE 10 13 1015.4 - 0.0 - - - - - - -
20/09:30am 26.5 ESE 10 12 1015.3 - 0.0 - - - - - - -
20/09:00am 25.8 ESE 11 16 1015.3 - 0.0 - - - - - - -
20/08:30am 25.1 ESE 11 17 1015.4 - 0.0 - - - - - - -
20/08:00am 24.8 ESE 10 15 1015.2 - 0.0 - - - - - - -
20/07:30am 24.0 ESE 11 15 1014.6 - 0.0 - - - - - - -
20/07:00am 23.6 ESE 10 14 1014.3 - 0.0 - - - - - - -
20/06:30am 23.9 ESE 11 14 1014.1 - 0.0 - - - - - - -
20/06:00am 24.0 ESE 9 13 1013.7 - 0.0 - - - - - - -
20/05:30am 24.1 ESE 10 14 1013.4 - 0.0 - - - - - - -
20/05:00am 24.3 ESE 10 15 1013.1 - 0.0 - - - - - - -
20/04:30am 24.4 ESE 8 11 1013.0 - 0.0 - - - - - - -
20/04:00am 24.0 ESE 6 8 1013.0 - 0.0 - - - - - - -
20/03:30am 23.8 ESE 5 7 1012.8 - 0.0 - - - - - - -
20/03:00am 23.9 SE 3 5 1013.0 - 0.0 - - - - - - -
20/02:30am 23.9 SSE 3 5 1013.1 - 0.0 - - - - - - -
20/02:00am 24.1 SSE 3 4 1013.2 - 0.0 - - - - - - -
20/01:30am 24.7 SSE 2 4 1013.5 - 0.0 - - - - - - -
20/01:00am 25.4 SE 4 7 1013.5 - 0.0 - - - - - - -
20/12:30am 25.8 ESE 7 11 1013.7 - 0.0 - - - - - - -
20/12:00am 25.6 E 6 9 1013.9 - 0.0 - - - - - - -
 
Date/Time
CST
Temp
°C
Wind Pressure Rain since
9am
mm
Weather Cloud Vis
km
Sea
Height
m
Swell
Dir  Spd
kts
Gust
kts
hPa Trend Height
m
Period
s
Dir
19/11:30pm 25.6 E 5 8 1013.8 - 0.0 - - - - - - -
19/11:00pm 25.7 E 6 9 1013.9 - 0.0 - - - - - - -
19/10:30pm 25.7 E 5 7 1014.0 - 0.0 - - - - - - -
19/10:00pm 25.6 ENE 5 8 1014.0 - 0.0 - - - - - - -
19/09:30pm 25.4 ENE 4 5 1013.7 - 0.0 - - - - - - -
19/09:00pm 25.3 ENE 3 5 1013.5 - 0.0 - - - - - - -
19/08:30pm 25.4 ENE 3 5 1013.3 - 0.0 - - - - - - -

Other Formats:

Comma delimited format used in spreadsheet applications
http://www.bom.gov.au/fwo/IDD60701/IDD60701.94139.axf

JavaScript Object Notation format (JSON) in row-major order
http://www.bom.gov.au/fwo/IDD60701/IDD60701.94139.json